DAOR/CBH METAR and TAF weather

Enter ICAO airport designator
Station Type Date Time Source
DAOR METAR 2019/04/24 22:00 UTC NOAA

DAOR 242200Z 36007KT CAVOK 20/03 Q1014


Station Type Date Time Source
DAOR Decoded METAR 2019/04/24 22:00 UTC NOAA

Bechar, Algeria (DAOR) 31-37N 002-14W 773M
Apr 24, 2019 - 06:00 PM EDT / 2019.04.24 2200 UTC
Wind: from the N (360 degrees) at 8 MPH (7 KT):0
Visibility: greater than 7 mile(s):0
Temperature: 68 F (20 C)
Dew Point: 37 F (3 C)
Relative Humidity: 32%
Pressure (altimeter): 29.94 in. Hg (1014 hPa)
ob: DAOR 242200Z 36007KT CAVOK 20/03 Q1014
cycle: 22

Station Type Date Time Source
DAOR TAF 2017/11/09 18:03 UTC NOAA

TAF DAOR 091700Z 0918/1009 35010KT 6000 FEW033 SCT100
TEMPO 0918/0924 3000 BLSA PROB40
TEMPO 0918/0924 35020G35KT 2000 -TSRA FEW030CB

Example: see airport list